Terminal Aerodrome Forecast
Issued by NWS Shreveport, LA

Home | Current Version | Previous Version | Text Only | Print | Product List | Glossary On
Versions: 1 2 3 4 5 6 7 8 9 10 11 12 13 14 15 16 17 18 19 20
000
FTUS44 KSHV 210421 AAB
TAFLFK
TAF AMD
KLFK 210421Z 2104/2124 VRB04KT 3SM BR FEW001 OVC050
      TEMPO 2105/2109 1SM BR BKN003
     FM210900 23005KT 3/4SM BR OVC002
      TEMPO 2109/2113 1/4SM FG VV001
     FM211500 27004KT P6SM BKN015
     FM211800 31008KT P6SM BKN100=

USA.gov is the U.S. government's official web portal to all federal, state and local government web resources and services.